Time;durP1;ratioP1;P1;durP2;ratioP2;P2;SDS_P1;SDS_P2;PMS_P1;PMS_P2;Temp;Humidity;BMP_temperature;BMP_pressure;BME280_temperature;BME280_humidity;BME280_pressure;Samples;Min_cycle;Max_cycle;Signal;HPM_P1;HPM_P2
2022/04/26 03:36:39;;;;;;;8.88;4.10;;;;;;;3.83;63.54;101680.16;5076901;28;20130;-45
2022/04/26 03:39:06;;;;;;;10.43;4.68;;;;;;;3.82;63.59;101681.16;5081711;28;20039;-46
2022/04/26 03:41:33;;;;;;;7.18;4.60;;;;;;;3.81;64.00;101690.13;5083165;28;20028;-45
2022/04/26 03:43:59;;;;;;;8.73;4.90;;;;;;;3.79;64.10;101678.06;5081590;28;20024;-45
2022/04/26 03:46:25;;;;;;;9.57;5.30;;;;;;;3.78;64.61;101687.84;5079725;28;20034;-45
2022/04/26 03:48:51;;;;;;;10.88;5.32;;;;;;;3.79;64.74;101691.31;5080178;28;20024;-45
2022/04/26 03:51:16;;;;;;;7.03;4.25;;;;;;;3.78;65.07;101687.00;5081964;28;20052;-45
2022/04/26 03:53:42;;;;;;;7.65;4.80;;;;;;;3.79;65.01;101686.00;5077248;28;20029;-45
2022/04/26 03:56:07;;;;;;;8.10;5.15;;;;;;;3.80;65.39;101693.78;5078400;28;20115;-45
2022/04/26 03:58:33;;;;;;;7.63;5.13;;;;;;;3.81;65.92;101690.13;5077450;28;20028;-45
2022/04/26 04:00:59;;;;;;;7.50;4.90;;;;;;;3.83;65.86;101681.97;5079899;28;20036;-44
2022/04/26 04:03:25;;;;;;;10.05;5.35;;;;;;;3.82;66.20;101691.75;5079547;28;20549;-45
2022/04/26 04:05:50;;;;;;;7.45;5.15;;;;;;;3.82;66.43;101688.28;5079605;28;20124;-45
2022/04/26 04:08:16;;;;;;;9.93;5.22;;;;;;;3.85;66.47;101691.41;5079999;28;20031;-45
2022/04/26 04:10:42;;;;;;;10.57;5.75;;;;;;;3.85;66.79;101696.69;5077466;28;20470;-46
2022/04/26 04:13:07;;;;;;;8.43;5.10;;;;;;;3.88;66.63;101684.91;5079080;28;20017;-44
2022/04/26 04:15:33;;;;;;;10.23;5.38;;;;;;;3.90;67.01;101689.00;5083273;28;20185;-45
2022/04/26 04:17:58;;;;;;;9.68;5.55;;;;;;;3.93;67.07;101696.59;5077617;28;20466;-45
2022/04/26 04:20:25;;;;;;;12.80;4.45;;;;;;;3.96;67.36;101698.09;5079281;28;20023;-45
2022/04/26 04:22:53;;;;;;;11.50;5.22;;;;;;;3.98;67.20;101682.81;5076492;28;20120;-46
2022/04/26 04:25:20;;;;;;;10.85;5.05;;;;;;;4.00;67.55;101699.38;5081886;28;20040;-45
2022/04/26 04:27:46;;;;;;;9.90;5.18;;;;;;;4.01;67.51;101694.88;5076899;28;20086;-48
2022/04/26 04:30:12;;;;;;;10.63;5.50;;;;;;;4.06;67.77;101692.50;5077110;28;20469;-45
2022/04/26 04:32:39;;;;;;;10.27;5.50;;;;;;;4.11;67.66;101700.72;5077971;28;20077;-45
2022/04/26 04:35:05;;;;;;;9.60;5.90;;;;;;;4.14;67.66;101705.69;5078563;28;20042;-45
2022/04/26 04:37:31;;;;;;;9.27;5.28;;;;;;;4.17;67.72;101705.34;5074930;28;20024;-45
2022/04/26 04:39:56;;;;;;;11.05;5.55;;;;;;;4.18;67.82;101701.66;5072998;28;20077;-45
2022/04/26 04:42:22;;;;;;;9.45;5.57;;;;;;;4.18;68.00;101709.63;5080585;28;20073;-45
2022/04/26 04:44:48;;;;;;;14.70;6.65;;;;;;;4.21;68.10;101711.91;5073484;28;20252;-46
2022/04/26 04:47:13;;;;;;;11.52;5.72;;;;;;;4.25;68.37;101713.19;5075877;28;20023;-45
2022/04/26 04:49:39;;;;;;;15.57;6.20;;;;;;;4.28;68.19;101710.16;5076480;28;20028;-45
2022/04/26 04:52:04;;;;;;;13.20;6.70;;;;;;;4.30;68.16;101716.09;5075534;28;20053;-46
2022/04/26 04:54:30;;;;;;;15.73;7.28;;;;;;;4.32;68.41;101718.59;5079696;28;20270;-45
2022/04/26 04:56:56;;;;;;;11.45;6.03;;;;;;;4.33;68.60;101715.75;5080352;28;20130;-45
2022/04/26 04:59:21;;;;;;;12.63;5.90;;;;;;;4.34;68.44;101721.88;5069987;28;20478;-46
2022/04/26 05:01:47;;;;;;;10.52;6.30;;;;;;;4.36;68.54;101719.88;5076778;28;20028;-46
2022/04/26 05:04:12;;;;;;;13.20;6.03;;;;;;;4.40;68.49;101727.28;5074484;28;20203;-45
2022/04/26 05:06:38;;;;;;;10.55;6.03;;;;;;;4.45;68.81;101730.19;5078768;28;20023;-45
2022/04/26 05:09:03;;;;;;;13.60;7.43;;;;;;;4.50;68.76;101730.50;5075070;28;20474;-45
2022/04/26 05:11:29;;;;;;;12.85;6.47;;;;;;;4.53;69.07;101721.34;5075914;28;20025;-46
2022/04/26 05:13:54;;;;;;;15.30;7.30;;;;;;;4.57;68.99;101732.41;5076834;28;20054;-44
2022/04/26 05:16:20;;;;;;;19.58;6.35;;;;;;;4.61;69.14;101725.72;5078835;28;20027;-46
2022/04/26 05:18:45;;;;;;;21.70;6.60;;;;;;;4.69;69.02;101729.09;5075959;28;20143;-45
2022/04/26 05:21:13;;;;;;;23.77;6.95;;;;;;;4.78;69.34;101730.63;5073774;28;20493;-45
2022/04/26 05:26:24;;;;;;;15.10;6.75;;;;;;;4.99;69.25;101729.84;5073345;28;20031;-46
2022/04/26 05:28:49;;;;;;;16.92;6.68;;;;;;;5.11;69.35;101730.19;5077355;28;20029;-47
2022/04/26 05:31:15;;;;;;;15.60;6.63;;;;;;;5.21;68.99;101727.25;5076823;28;20016;-45
2022/04/26 05:33:40;;;;;;;22.55;7.13;;;;;;;5.30;69.12;101734.06;5079149;28;20054;-45
2022/04/26 05:36:06;;;;;;;16.60;7.45;;;;;;;5.39;69.64;101727.63;5076494;28;20027;-45
2022/04/26 05:38:32;;;;;;;16.30;8.50;;;;;;;5.47;69.43;101735.47;5075959;27;20029;-46
2022/04/26 05:40:57;;;;;;;15.48;7.75;;;;;;;5.57;69.33;101732.50;5080937;28;20073;-45
2022/04/26 05:43:23;;;;;;;13.25;7.38;;;;;;;5.63;69.56;101732.53;5075835;28;20503;-45
2022/04/26 05:45:49;;;;;;;15.23;7.45;;;;;;;5.71;69.72;101735.06;5078155;28;20025;-45
2022/04/26 05:48:14;;;;;;;13.50;7.43;;;;;;;5.84;69.76;101737.00;5077829;28;20028;-46
2022/04/26 05:50:40;;;;;;;12.57;6.85;;;;;;;5.94;69.65;101737.53;5080104;28;20054;-45
2022/04/26 05:53:07;;;;;;;14.23;7.53;;;;;;;6.04;69.65;101731.88;5075430;28;20028;-45
2022/04/26 05:55:32;;;;;;;12.85;6.82;;;;;;;6.14;69.80;101740.34;5071853;28;20445;-44
2022/04/26 05:57:58;;;;;;;13.00;6.95;;;;;;;6.23;69.67;101731.16;5074737;28;20027;-45
2022/04/26 06:00:23;;;;;;;14.05;7.13;;;;;;;6.35;69.65;101729.63;5078697;28;20024;-46
2022/04/26 06:02:49;;;;;;;13.50;7.32;;;;;;;6.50;69.71;101739.31;5076048;28;20393;-45
2022/04/26 06:05:15;;;;;;;11.90;6.75;;;;;;;6.62;69.39;101737.72;5077393;28;20047;-45
2022/04/26 06:07:41;;;;;;;12.63;7.55;;;;;;;6.72;69.67;101734.72;5083146;28;20509;-45
2022/04/26 06:10:07;;;;;;;12.35;6.93;;;;;;;6.78;69.61;101734.72;5078981;28;20395;-45
2022/04/26 06:12:33;;;;;;;13.73;6.93;;;;;;;6.89;69.88;101734.16;5080007;28;20444;-46
2022/04/26 06:14:59;;;;;;;13.77;7.93;;;;;;;7.00;69.65;101732.75;5081493;28;20050;-45
2022/04/26 06:17:25;;;;;;;12.90;7.18;;;;;;;7.10;70.03;101735.06;5075488;28;20036;-45
2022/04/26 06:19:51;;;;;;;16.77;7.53;;;;;;;7.19;69.86;101748.00;5078982;28;20028;-45
2022/04/26 06:22:16;;;;;;;13.27;7.07;;;;;;;7.27;69.54;101744.31;5076826;28;20028;-45
2022/04/26 06:24:42;;;;;;;12.85;7.15;;;;;;;7.36;69.57;101748.47;5082138;28;20038;-46
2022/04/26 06:27:08;;;;;;;14.63;7.45;;;;;;;7.47;69.34;101745.19;5077157;28;20489;-45
2022/04/26 06:29:33;;;;;;;16.13;8.27;;;;;;;7.57;69.35;101739.47;5076058;28;20044;-45
2022/04/26 06:31:59;;;;;;;16.13;7.93;;;;;;;7.67;69.17;101736.38;5077994;28;20583;-44
2022/04/26 06:34:25;;;;;;;14.02;7.07;;;;;;;7.76;69.13;101743.97;5075183;28;20678;-45
2022/04/26 06:36:50;;;;;;;13.60;7.18;;;;;;;7.85;68.98;101736.56;5075971;28;20024;-45
2022/04/26 06:39:16;;;;;;;13.13;6.65;;;;;;;8.01;69.14;101735.34;5077245;28;20435;-45
2022/04/26 06:41:42;;;;;;;12.63;6.80;;;;;;;8.14;68.85;101730.00;5078773;28;20027;-48
2022/04/26 06:44:07;;;;;;;13.65;6.68;;;;;;;8.26;68.96;101735.50;5075083;28;20031;-45
2022/04/26 06:46:36;;;;;;;14.23;7.25;;;;;;;8.39;68.68;101732.84;5075423;28;20374;-46
2022/04/26 06:49:02;;;;;;;11.32;6.03;;;;;;;8.55;68.27;101740.41;5076914;28;20028;-45
2022/04/26 06:51:30;;;;;;;14.40;6.47;;;;;;;8.71;67.98;101739.13;5075586;28;20032;-45
2022/04/26 06:53:56;;;;;;;13.43;5.95;;;;;;;8.86;67.69;101736.19;5078813;28;20031;-46
2022/04/26 06:56:21;;;;;;;11.13;5.32;;;;;;;9.01;67.75;101734.88;5075113;28;20521;-45
2022/04/26 06:58:47;;;;;;;10.07;4.90;;;;;;;9.20;67.24;101740.34;5075476;28;20298;-46
2022/04/26 07:01:13;;;;;;;9.93;5.80;;;;;;;9.35;67.13;101736.34;5075144;28;20043;-45
2022/04/26 07:03:38;;;;;;;8.52;4.90;;;;;;;9.51;66.14;101736.81;5077355;28;20063;-45
2022/04/26 07:06:04;;;;;;;9.50;5.50;;;;;;;9.63;65.38;101741.25;5076413;28;20016;-45
2022/04/26 07:08:29;;;;;;;7.95;5.13;;;;;;;9.78;64.82;101743.63;5076052;28;21143;-45
2022/04/26 07:10:55;;;;;;;11.38;5.32;;;;;;;9.92;64.95;101744.34;5073969;28;20103;-46
2022/04/26 07:13:22;;;;;;;11.10;5.90;;;;;;;10.07;64.38;101747.50;5072207;28;20501;-46
2022/04/26 07:15:48;;;;;;;8.82;5.57;;;;;;;10.23;64.58;101748.81;5079318;28;20063;-45
2022/04/26 07:18:14;;;;;;;11.32;5.90;;;;;;;10.39;63.74;101750.09;5075617;28;20048;-45
2022/04/26 07:20:46;;;;;;;10.65;5.47;;;;;;;10.53;63.87;101752.41;5071281;28;20070;-45
2022/04/26 07:23:12;;;;;;;10.05;5.18;;;;;;;10.68;63.19;101743.19;5079004;28;20025;-45
2022/04/26 07:25:39;;;;;;;8.85;5.22;;;;;;;10.86;62.75;101748.53;5077221;28;20055;-46
2022/04/26 07:28:05;;;;;;;8.50;5.10;;;;;;;11.04;62.11;101753.84;5077194;28;20031;-46
2022/04/26 07:30:36;;;;;;;7.32;5.15;;;;;;;11.20;61.53;101745.19;5074740;28;20036;-46
2022/04/26 07:35:53;;;;;;;5.47;3.70;;;;;;;11.48;60.29;101749.09;5077272;28;20228;-46
2022/04/26 07:38:19;;;;;;;5.80;3.45;;;;;;;11.61;59.49;101759.66;5075997;28;20044;-45
2022/04/26 07:40:45;;;;;;;5.13;3.55;;;;;;;11.73;58.95;101757.81;5077171;28;20434;-46
2022/04/26 07:43:10;;;;;;;4.43;3.28;;;;;;;11.89;58.52;101747.47;5074834;28;20115;-46
2022/04/26 07:45:40;;;;;;;5.88;3.15;;;;;;;12.03;57.65;101752.41;5075548;28;20077;-49
2022/04/26 07:48:07;;;;;;;5.25;2.97;;;;;;;12.16;56.70;101756.69;5079075;28;20479;-46
2022/04/26 07:50:33;;;;;;;6.45;2.78;;;;;;;12.28;55.82;101759.41;5077216;28;20020;-47
2022/04/26 07:53:00;;;;;;;2.40;2.00;;;;;;;12.40;54.80;101752.16;5071588;28;20025;-46
2022/04/26 07:55:27;;;;;;;6.88;2.80;;;;;;;12.54;54.47;101753.50;5067663;28;20059;-46
2022/04/26 07:57:52;;;;;;;4.13;2.45;;;;;;;12.69;54.25;101761.91;5072377;28;20048;-45
2022/04/26 08:00:18;;;;;;;2.60;2.20;;;;;;;12.85;53.60;101754.97;5074012;28;20052;-46
2022/04/26 08:02:43;;;;;;;3.78;2.17;;;;;;;12.98;52.87;101757.38;5070976;28;20035;-46
2022/04/26 08:05:09;;;;;;;5.65;2.90;;;;;;;13.08;52.04;101758.63;5073319;28;20474;-45
2022/04/26 08:07:39;;;;;;;8.70;2.88;;;;;;;13.20;52.16;101756.75;5079159;28;20086;-45
2022/04/26 08:10:09;;;;;;;5.70;2.85;;;;;;;13.34;51.46;101755.41;5077335;28;20485;-46
2022/04/26 08:12:36;;;;;;;5.85;2.63;;;;;;;13.49;51.33;101761.06;5080129;28;20503;-46
2022/04/26 08:15:02;;;;;;;4.82;2.60;;;;;;;13.64;50.78;101762.34;5077237;28;20631;-45
2022/04/26 08:17:27;;;;;;;3.67;2.10;;;;;;;13.77;50.52;101768.25;5081400;28;20521;-46
2022/04/26 08:19:53;;;;;;;3.63;2.28;;;;;;;13.93;50.13;101769.31;5082324;28;20056;-45
2022/04/26 08:22:18;;;;;;;4.53;2.67;;;;;;;14.04;49.53;101768.41;5076056;28;20028;-46
2022/04/26 08:27:33;;;;;;;3.47;2.22;;;;;;;14.31;48.63;101773.94;5080772;28;20069;-46
2022/04/26 08:29:59;;;;;;;5.70;2.13;;;;;;;14.43;48.46;101773.84;5077178;28;20024;-46
2022/04/26 08:32:29;;;;;;;3.80;2.50;;;;;;;14.52;47.98;101773.16;5079419;28;20032;-45
2022/04/26 08:34:56;;;;;;;3.22;2.40;;;;;;;14.67;47.26;101777.97;5076786;28;20031;-46
2022/04/26 08:37:23;;;;;;;4.15;2.80;;;;;;;14.76;47.13;101775.66;5078866;28;20024;-46
2022/04/26 08:39:52;;;;;;;3.72;2.83;;;;;;;14.85;46.78;101779.53;5079947;28;20036;-45
2022/04/26 08:42:33;;;;;;;6.43;3.08;;;;;;;14.81;45.34;101783.81;5074056;28;20386;-46
2022/04/26 08:44:59;;;;;;;5.38;2.80;;;;;;;14.94;46.24;101783.44;5071988;28;20025;-46
2022/04/26 08:52:52;;;;;;;4.80;2.47;;;;;;;15.27;45.32;101778.94;5076747;28;20089;-47
2022/04/26 08:55:19;;;;;;;3.78;2.72;;;;;;;15.33;45.11;101781.44;5076114;28;20035;-47
2022/04/26 08:57:45;;;;;;;5.03;2.97;;;;;;;15.39;44.46;101780.41;5078372;28;20032;-46
2022/04/26 09:00:11;;;;;;;7.00;3.22;;;;;;;15.38;43.74;101784.19;5071661;28;20020;-46
2022/04/26 09:02:41;;;;;;;5.10;2.80;;;;;;;15.40;43.53;101787.44;5080163;28;20153;-46
2022/04/26 09:05:12;;;;;;;5.80;2.42;;;;;;;15.50;42.99;101785.91;5074579;28;20538;-46
2022/04/26 09:07:39;;;;;;;3.30;2.33;;;;;;;15.61;43.10;101785.78;5079352;28;20028;-45
2022/04/26 09:10:04;;;;;;;3.10;2.70;;;;;;;15.77;43.03;101781.31;5077109;28;20036;-46
2022/04/26 09:12:30;;;;;;;4.40;2.70;;;;;;;15.96;43.44;101784.44;5081914;28;20028;-45
2022/04/26 09:14:55;;;;;;;4.43;2.47;;;;;;;16.12;43.08;101777.25;5080556;28;20469;-45
2022/04/26 09:17:21;;;;;;;5.72;2.40;;;;;;;16.26;42.93;101781.97;5081249;28;20369;-45
2022/04/26 09:19:48;;;;;;;3.90;2.13;;;;;;;16.43;43.01;101783.69;5080455;28;20020;-46
2022/04/26 09:22:22;;;;;;;3.97;2.30;;;;;;;16.58;42.03;101781.06;5078345;28;20038;-45
2022/04/26 09:24:58;;;;;;;3.75;2.30;;;;;;;16.72;42.34;101781.44;5075136;28;20504;-46
2022/04/26 09:27:24;;;;;;;5.03;2.58;;;;;;;16.88;42.27;101781.25;5078765;28;20059;-46
2022/04/26 09:29:49;;;;;;;3.30;2.63;;;;;;;16.97;41.58;101775.31;5079053;28;20023;-46
2022/04/26 09:32:15;;;;;;;4.90;2.65;;;;;;;17.03;40.76;101772.34;5075223;28;20089;-46
2022/04/26 09:34:41;;;;;;;3.72;2.70;;;;;;;16.99;40.29;101771.25;5076071;28;20312;-45
2022/04/26 09:37:07;;;;;;;8.65;2.88;;;;;;;16.96;39.99;101776.38;5077181;28;20109;-45
2022/04/26 09:39:32;;;;;;;6.00;3.42;;;;;;;16.94;39.70;101773.94;5077058;28;20024;-46
2022/04/26 09:41:58;;;;;;;4.03;2.72;;;;;;;17.02;39.67;101773.41;5077473;28;20029;-46
2022/04/26 09:44:35;;;;;;;6.15;3.00;;;;;;;17.18;39.48;101766.16;5080053;28;20370;-46
2022/04/26 09:47:00;;;;;;;3.63;3.00;;;;;;;17.39;40.00;101767.00;5084084;28;20032;-45
2022/04/26 09:49:34;;;;;;;4.82;2.63;;;;;;;17.60;39.83;101765.97;5074765;28;20043;-45
2022/04/26 09:52:01;;;;;;;2.93;2.47;;;;;;;17.81;40.03;101762.19;5080079;28;20047;-48
2022/04/26 09:54:27;;;;;;;5.13;2.80;;;;;;;17.91;39.63;101760.56;5079366;28;20071;-46
2022/04/26 09:56:53;;;;;;;6.10;3.22;;;;;;;18.06;39.43;101763.25;5072313;28;20035;-45
2022/04/26 09:59:29;;;;;;;3.45;2.55;;;;;;;18.11;38.73;101760.53;5076844;28;20059;-46
2022/04/26 10:01:59;;;;;;;3.97;2.95;;;;;;;18.06;38.14;101763.25;5073130;28;20485;-45
2022/04/26 10:04:29;;;;;;;2.58;2.15;;;;;;;18.10;38.04;101758.91;5073515;28;20078;-46
2022/04/26 10:07:05;;;;;;;4.35;2.70;;;;;;;18.16;37.61;101763.25;5073824;28;20112;-46
2022/04/26 10:09:31;;;;;;;4.68;2.42;;;;;;;18.33;38.24;101763.75;5077429;28;20047;-45
2022/04/26 10:11:59;;;;;;;6.72;2.42;;;;;;;18.46;37.85;101761.53;5077810;28;20024;-46
2022/04/26 10:14:27;;;;;;;4.25;2.75;;;;;;;18.65;37.95;101765.28;5080711;28;20016;-45
2022/04/26 10:16:53;;;;;;;5.50;3.13;;;;;;;18.71;37.11;101761.50;5073749;28;20028;-46
2022/04/26 10:19:19;;;;;;;3.50;2.60;;;;;;;18.64;36.29;101760.97;5075028;28;20035;-45
2022/04/26 10:21:52;;;;;;;3.90;2.47;;;;;;;18.67;36.07;101763.13;5076110;28;20032;-46
2022/04/26 10:24:18;;;;;;;2.45;2.15;;;;;;;18.82;36.21;101754.09;5073801;28;20077;-46
2022/04/26 10:26:45;;;;;;;4.05;2.80;;;;;;;18.93;36.15;101761.13;5077427;28;20055;-45
2022/04/26 10:29:20;;;;;;;4.05;2.53;;;;;;;19.01;35.70;101749.66;5085563;28;20075;-46
2022/04/26 10:31:47;;;;;;;;;;;;;;;19.01;35.65;101753.19;5080634;28;20020;-46
2022/04/26 10:34:29;;;;;;;7.13;2.65;;;;;;;19.23;35.84;101743.84;5079847;28;19946;-45
2022/04/26 10:37:06;;;;;;;3.80;2.75;;;;;;;19.33;35.68;101743.75;5077533;28;20028;-46
2022/04/26 10:39:36;;;;;;;8.68;2.97;;;;;;;19.20;34.88;101747.09;5081745;28;20155;-46
2022/04/26 10:42:07;;;;;;;5.80;2.60;;;;;;;19.20;35.10;101747.09;5078801;28;20024;-45
2022/04/26 10:44:38;;;;;;;4.03;2.53;;;;;;;19.27;35.17;101750.31;5079023;28;20093;-45
2022/04/26 10:47:04;;;;;;;5.95;2.47;;;;;;;19.21;34.81;101746.00;5076072;28;20059;-46
2022/04/26 10:49:32;;;;;;;8.73;2.65;;;;;;;19.00;34.58;101743.41;5078030;28;20234;-46
2022/04/26 10:52:25;;;;;;;7.97;3.25;;;;;;;18.99;34.26;101740.97;5073754;28;20024;-48
2022/04/26 10:54:55;;;;;;;5.25;2.88;;;;;;;19.08;34.55;101741.22;5076421;28;20417;-46
2022/04/26 10:57:28;;;;;;;7.95;2.55;;;;;;;19.05;33.58;101741.78;5078718;28;20033;-46
2022/04/26 10:59:59;;;;;;;5.07;2.78;;;;;;;18.97;33.76;101740.44;5072527;28;20028;-45
2022/04/26 11:02:28;;;;;;;6.18;2.17;;;;;;;19.03;33.65;101747.50;5074437;28;20044;-45
2022/04/26 11:05:01;;;;;;;2.42;1.85;;;;;;;19.16;33.19;101737.88;5077234;28;20078;-45
2022/04/26 11:07:28;;;;;;;3.22;2.33;;;;;;;19.22;32.95;101739.50;5079771;28;20043;-45
2022/04/26 11:09:55;;;;;;;2.70;2.00;;;;;;;19.19;32.58;101740.03;5067849;28;20024;-46
2022/04/26 11:12:35;;;;;;;3.08;2.40;;;;;;;19.22;32.47;101742.22;5078971;28;20081;-45
2022/04/26 11:15:15;;;;;;;2.50;2.28;;;;;;;19.14;32.21;101748.22;5070093;28;20040;-45
2022/04/26 11:17:42;;;;;;;2.55;2.20;;;;;;;19.15;32.64;101747.13;5075731;28;20031;-45
2022/04/26 11:20:14;;;;;;;4.13;2.35;;;;;;;19.25;32.49;101747.09;5072969;28;20187;-44
2022/04/26 11:22:44;;;;;;;3.13;2.20;;;;;;;19.36;32.28;101751.34;5074507;28;20067;-45
2022/04/26 11:28:11;;;;;;;3.28;2.13;;;;;;;19.66;32.57;101752.25;5069568;28;20081;-45
2022/04/26 11:30:55;;;;;;;2.13;1.92;;;;;;;19.81;32.29;101752.13;5074019;28;20096;-45
2022/04/26 11:33:22;;;;;;;3.65;2.10;;;;;;;19.95;32.25;101750.34;5073657;28;20486;-45
2022/04/26 11:35:57;;;;;;;3.35;1.90;;;;;;;20.00;32.13;101752.22;5071961;28;20406;-45
2022/04/26 11:38:24;;;;;;;5.68;2.53;;;;;;;20.03;32.31;101759.78;5073194;28;20142;-45
2022/04/26 11:40:52;;;;;;;3.33;1.77;;;;;;;20.03;32.00;101749.72;5071489;28;20089;-46
2022/04/26 11:43:22;;;;;;;3.53;2.08;;;;;;;20.06;32.06;101751.88;5078376;28;20119;-45
2022/04/26 11:45:53;;;;;;;4.22;2.20;;;;;;;20.14;31.84;101750.44;5078433;28;20030;-46
2022/04/26 11:48:21;;;;;;;3.90;2.03;;;;;;;20.26;32.35;101750.03;5077124;28;20394;-45
2022/04/26 11:50:48;;;;;;;2.63;2.05;;;;;;;20.34;31.97;101750.22;5076034;28;20532;-46
2022/04/26 11:53:16;;;;;;;3.35;2.08;;;;;;;20.40;32.26;101751.78;5076135;28;20055;-45
2022/04/26 11:55:51;;;;;;;2.95;1.90;;;;;;;20.53;31.24;101750.31;5077279;28;20504;-45
2022/04/26 11:58:34;;;;;;;2.25;1.70;;;;;;;20.71;30.73;101752.25;5075189;28;20465;-46
2022/04/26 12:01:02;;;;;;;1.88;1.77;;;;;;;20.93;30.50;101753.59;5078516;28;20060;-45
2022/04/26 12:03:48;;;;;;;2.50;1.90;;;;;;;21.12;30.14;101752.50;5072101;28;20028;-46
2022/04/26 12:06:24;;;;;;;5.05;1.90;;;;;;;21.32;29.94;101750.63;5080177;28;20512;-45
2022/04/26 12:08:54;;;;;;;2.42;1.83;;;;;;;21.45;29.25;101749.88;5080402;28;20528;-45
2022/04/26 12:11:28;;;;;;;1.73;1.60;;;;;;;21.47;28.97;101746.84;5077428;28;20032;-46
2022/04/26 12:14:06;;;;;;;3.75;2.17;;;;;;;21.45;27.47;101744.44;5077880;28;20028;-45
2022/04/26 12:16:36;;;;;;;4.45;1.70;;;;;;;21.60;28.11;101740.66;5072667;28;20024;-45
2022/04/26 12:19:05;;;;;;;2.33;1.50;;;;;;;21.68;28.21;101739.94;5080946;28;20020;-45
2022/04/26 12:21:59;;;;;;;4.22;1.83;;;;;;;21.75;27.81;101737.66;5071800;28;20042;-45
2022/04/26 12:24:32;;;;;;;3.78;1.55;;;;;;;21.86;26.76;101743.75;5078905;28;20173;-45
2022/04/26 12:27:03;;;;;;;3.25;1.73;;;;;;;21.92;27.09;101742.56;5081601;28;20081;-45
2022/04/26 12:29:36;;;;;;;2.85;1.60;;;;;;;22.02;27.56;101743.16;5080435;28;20081;-45
2022/04/26 12:32:07;;;;;;;3.05;2.08;;;;;;;22.14;27.65;101736.44;5084016;28;20108;-45
2022/04/26 12:34:33;;;;;;;3.30;1.95;;;;;;;22.29;28.02;101736.16;5079191;28;20028;-45
2022/04/26 12:37:00;;;;;;;3.33;2.15;;;;;;;22.44;27.76;101732.28;5077165;28;20669;-46
2022/04/26 12:39:42;;;;;;;2.72;1.92;;;;;;;22.54;27.61;101741.09;5077990;28;20027;-45
2022/04/26 12:42:14;;;;;;;2.58;2.00;;;;;;;22.60;28.06;101737.13;5077097;28;20500;-45
2022/04/26 12:45:00;;;;;;;2.90;2.08;;;;;;;22.51;28.16;101736.25;5075364;28;20032;-46
2022/04/26 12:50:31;;;;;;;4.20;1.92;;;;;;;22.79;27.94;101734.28;5072620;28;20504;-46
2022/04/26 12:53:02;;;;;;;5.28;2.75;;;;;;;22.86;28.21;101734.72;5078781;28;20098;-47
2022/04/26 12:55:38;;;;;;;3.53;2.47;;;;;;;22.95;28.04;101726.59;5072894;28;20034;-46
2022/04/26 12:58:09;;;;;;;2.97;2.38;;;;;;;22.83;28.05;101729.06;5073395;28;20509;-47
2022/04/26 13:00:41;;;;;;;8.55;2.38;;;;;;;22.78;28.13;101727.19;5079378;28;20389;-46
2022/04/26 13:03:07;;;;;;;3.03;2.15;;;;;;;22.97;27.56;101724.34;5077244;28;20029;-45
2022/04/26 13:05:47;;;;;;;2.22;2.03;;;;;;;22.99;26.97;101716.69;5070467;28;20291;-46
2022/04/26 13:08:15;;;;;;;2.30;1.98;;;;;;;22.87;27.45;101713.66;5081225;28;20237;-45
2022/04/26 13:10:41;;;;;;;3.30;2.08;;;;;;;22.84;27.82;101725.22;5078290;28;20111;-47
2022/04/26 13:13:08;;;;;;;3.50;2.20;;;;;;;22.89;27.17;101716.91;5081760;28;20381;-46
2022/04/26 13:15:35;;;;;;;3.53;2.13;;;;;;;22.65;27.75;101721.78;5079531;28;20024;-46
2022/04/26 13:18:00;;;;;;;6.30;2.50;;;;;;;;;;5081128;28;20031;-46
2022/04/26 13:20:26;;;;;;;4.63;2.55;;;;;;;22.18;28.38;101712.91;5080591;28;20032;-45
2022/04/26 13:22:52;;;;;;;3.33;2.67;;;;;;;22.02;28.67;101715.88;5073250;28;20036;-46
2022/04/26 13:25:18;;;;;;;4.53;2.67;;;;;;;21.89;28.53;101716.66;5079971;28;20032;-45
2022/04/26 13:27:46;;;;;;;4.22;2.55;;;;;;;21.91;28.75;101709.00;5079273;28;20552;-45
2022/04/26 13:30:12;;;;;;;3.72;2.15;;;;;;;21.74;28.53;101714.22;5074401;28;20035;-46
2022/04/26 13:32:38;;;;;;;2.55;2.25;;;;;;;21.61;29.11;101718.53;5079042;28;20031;-45
2022/04/26 13:35:05;;;;;;;5.82;2.33;;;;;;;21.61;29.27;101713.06;5071372;28;20035;-46
2022/04/26 13:37:31;;;;;;;5.13;2.35;;;;;;;21.57;29.02;101719.44;5080534;28;20298;-45
2022/04/26 13:39:58;;;;;;;3.88;2.00;;;;;;;21.47;28.98;101714.13;5072393;28;20138;-46
2022/04/26 13:42:25;;;;;;;5.88;2.25;;;;;;;21.32;29.21;101707.00;5078516;28;20032;-45
2022/04/26 13:44:54;;;;;;;5.32;2.60;;;;;;;21.23;28.59;101715.03;5075830;28;20108;-46
2022/04/26 13:47:21;;;;;;;2.88;1.98;;;;;;;21.10;29.14;101705.69;5078324;28;20031;-46
2022/04/26 13:49:47;;;;;;;8.30;2.65;;;;;;;21.07;29.14;101710.91;5078428;28;20111;-45
2022/04/26 13:52:15;;;;;;;4.28;2.28;;;;;;;20.92;28.69;101709.22;5072857;28;20024;-46
2022/04/26 13:54:43;;;;;;;4.00;2.10;;;;;;;20.81;29.38;101707.72;5073250;28;20059;-46
2022/04/26 13:57:10;;;;;;;3.20;1.90;;;;;;;20.76;29.51;101707.81;5070098;28;20513;-45
2022/04/26 13:59:36;;;;;;;3.92;2.17;;;;;;;20.78;29.72;101708.31;5072797;28;20316;-46
2022/04/26 14:02:03;;;;;;;4.30;2.20;;;;;;;20.77;29.64;101712.94;5071518;28;20471;-47
2022/04/26 14:04:29;;;;;;;4.55;2.55;;;;;;;20.72;29.57;101704.88;5074692;28;20033;-45
2022/04/26 14:06:54;;;;;;;3.65;1.42;;;;;;;20.72;30.14;101713.03;5071891;28;20047;-45
2022/04/26 14:09:22;;;;;;;2.72;2.20;;;;;;;20.73;30.11;101709.22;5079915;28;20024;-46
2022/04/26 14:11:48;;;;;;;4.82;2.20;;;;;;;20.71;29.44;101708.69;5081391;28;20031;-45
2022/04/26 14:22:30;;;;;;;9.40;2.70;;;;;;;20.53;29.91;101706.75;5079271;28;20039;-45
2022/04/26 14:24:58;;;;;;;6.95;2.25;;;;;;;20.56;30.10;101700.72;5072417;28;20718;-46
2022/04/26 14:27:24;;;;;;;3.60;2.10;;;;;;;21.02;29.77;101705.53;5081762;28;20360;-45
2022/04/26 14:29:50;;;;;;;4.47;2.10;;;;;;;21.50;29.19;101703.44;5079589;28;20114;-46
2022/04/26 14:32:15;;;;;;;2.70;1.73;;;;;;;21.51;28.45;101693.34;5079224;28;20542;-46
2022/04/26 14:34:42;;;;;;;1.90;1.42;;;;;;;21.39;28.69;101697.34;5076848;28;20044;-46
2022/04/26 14:37:12;;;;;;;5.15;1.90;;;;;;;21.65;28.29;101697.72;5078715;28;20394;-46
2022/04/26 14:39:38;;;;;;;3.35;1.80;;;;;;;21.96;28.13;101692.53;5078859;28;20039;-45
2022/04/26 14:42:04;;;;;;;2.97;1.95;;;;;;;22.31;27.63;101696.53;5074146;28;20036;-45
2022/04/26 14:44:29;;;;;;;2.13;1.92;;;;;;;22.73;27.31;101702.72;5077659;28;20138;-46
2022/04/26 14:46:55;;;;;;;7.28;2.10;;;;;;;22.68;27.05;101693.84;5074571;28;21182;-46
2022/04/26 14:49:20;;;;;;;3.35;2.00;;;;;;;22.40;27.16;101693.06;5079038;28;20063;-47
2022/04/26 14:51:46;;;;;;;4.68;1.98;;;;;;;22.13;27.61;101694.69;5073950;28;20039;-46
2022/04/26 14:54:12;;;;;;;2.90;2.33;;;;;;;21.88;27.68;101693.22;5078715;28;20043;-46
2022/04/26 14:56:38;;;;;;;3.47;1.88;;;;;;;21.69;27.89;101696.00;5077551;28;20027;-46
2022/04/26 14:59:07;;;;;;;2.13;1.92;;;;;;;21.54;28.11;101692.75;5075483;28;20032;-45
2022/04/26 15:01:33;;;;;;;6.70;1.83;;;;;;;21.38;27.93;101690.28;5081605;28;20187;-46
2022/04/26 15:03:59;;;;;;;2.15;1.90;;;;;;;21.21;28.24;101694.63;5076815;28;20111;-45
2022/04/26 15:06:25;;;;;;;2.33;1.95;;;;;;;21.02;28.28;101691.94;5076709;28;20165;-45
2022/04/26 15:11:35;;;;;;;3.95;2.28;;;;;;;20.71;28.58;101697.78;5079972;28;20036;-45
2022/04/26 15:16:47;;;;;;;4.33;1.80;;;;;;;20.40;29.10;101704.69;5082143;28;20038;-46
2022/04/26 15:19:14;;;;;;;2.83;1.75;;;;;;;20.54;29.38;101707.56;5078959;28;20276;-44
2022/04/26 15:21:43;;;;;;;6.75;2.13;;;;;;;20.67;28.49;101701.41;5077757;28;20046;-46
2022/04/26 15:24:12;;;;;;;2.75;2.00;;;;;;;20.57;28.89;101710.50;5083451;28;20016;-45
2022/04/26 15:26:38;;;;;;;4.70;2.35;;;;;;;20.51;29.22;101700.78;5084094;28;20135;-47
2022/04/26 15:29:05;;;;;;;4.88;1.90;;;;;;;20.51;29.55;101698.88;5083288;28;20438;-47
2022/04/26 15:31:32;;;;;;;4.60;1.88;;;;;;;20.63;29.14;101695.72;5084251;28;20089;-45
2022/04/26 15:33:58;;;;;;;1.80;1.58;;;;;;;20.64;29.24;101702.78;5085894;28;20020;-46
2022/04/26 15:36:24;;;;;;;2.53;1.60;;;;;;;20.50;29.47;101702.69;5079451;28;20101;-47
2022/04/26 15:38:50;;;;;;;3.28;1.50;;;;;;;20.43;29.58;101698.69;5077200;28;20102;-45